KLGC

Lagrange-Callaway Airport

Lagrange, Georgia, USA
METAR KLGC 172035Z AUTO 33003KT 10SM OVC037 09/09 A3015 RMK AO2 T00910088
Observed Flight Rules
Dec-17 @ 20:35 UTC (35 minutes ago) Visual Flight Rules
Wind Visibility Clouds
330° at 3 knots 10 miles
  • Overcast at 3,700' AGL
Temperatures Readings
Current 9°C / 48°F
Dewpoint 9°C / 48°F
Humidity 100%
Altimeter 30.15" Hg
Pressure 1021 hPa
Elevation 211
METAR KLGC 172035Z AUTO 33003KT 10SM OVC037 09/09 A3015 RMK AO2 T00910088
Observed Flight Rules
Dec-17 @ 20:35 UTC
(35 minutes ago)
VFR
Wind Visibility
330° at 3 knots 10 miles
Clouds
  • Overcast at 3,700' AGL
Temperature Dewpoint
9°C / 48°F 9°C / 48°F
Humidity Altimeter Pressure
100% 30.15" Hg 1021 hPa